createdAt,value
2019-03-10T00:00:42.781Z,38.85
2019-03-10T00:03:11.365Z,29.87
2019-03-10T00:05:39.910Z,29.98
2019-03-10T00:08:10.397Z,26.40
2019-03-10T00:10:38.969Z,27.52
2019-03-10T00:13:07.423Z,38.30
2019-03-10T00:15:36.463Z,35.13
2019-03-10T00:18:04.952Z,31.27
2019-03-10T00:20:35.962Z,26.87
2019-03-10T00:23:04.842Z,24.50
2019-03-10T00:25:33.309Z,34.75
2019-03-10T00:28:01.746Z,36.55
2019-03-10T00:30:30.660Z,27.80
2019-03-10T00:32:59.336Z,36.77
2019-03-10T00:35:27.895Z,43.40
2019-03-10T00:37:56.536Z,36.70
2019-03-10T00:40:45.914Z,34.58
2019-03-10T00:43:34.401Z,24.55
2019-03-10T00:46:21.006Z,33.38
2019-03-10T00:49:10.710Z,24.55
2019-03-10T00:51:45.167Z,27.10
2019-03-10T00:54:13.844Z,27.15
2019-03-10T00:56:42.430Z,35.80
2019-03-10T00:59:10.879Z,49.67
2019-03-10T01:01:39.450Z,32.55
2019-03-10T01:04:07.889Z,26.65
2019-03-10T01:06:36.386Z,31.52
2019-03-10T01:09:06.224Z,28.00
2019-03-10T01:11:34.970Z,27.65
2019-03-10T01:14:03.500Z,28.17
2019-03-10T01:16:33.252Z,28.60
2019-03-10T01:19:02.638Z,34.60
2019-03-10T01:21:32.130Z,27.85
2019-03-10T01:24:00.713Z,29.75
2019-03-10T01:26:29.231Z,20.62
2019-03-10T01:28:57.682Z,27.67
2019-03-10T01:31:29.563Z,26.60
2019-03-10T01:34:08.670Z,19.12
2019-03-10T01:36:38.516Z,22.52
2019-03-10T01:39:08.846Z,28.47
2019-03-10T01:41:37.309Z,32.33
2019-03-10T01:44:06.177Z,22.60
2019-03-10T01:46:34.685Z,28.00
2019-03-10T01:49:03.207Z,32.70
2019-03-10T01:51:31.864Z,33.55
2019-03-10T01:54:00.312Z,25.00
2019-03-10T01:56:28.764Z,33.35
2019-03-10T01:58:57.304Z,31.10
2019-03-10T02:01:25.819Z,33.53
2019-03-10T02:03:54.358Z,29.25
2019-03-10T02:06:23.177Z,31.02
2019-03-10T02:08:51.665Z,27.73
2019-03-10T02:11:20.597Z,25.37
2019-03-10T02:13:49.420Z,24.27
2019-03-10T02:16:17.857Z,27.58
2019-03-10T02:18:46.341Z,30.27
2019-03-10T02:21:15.270Z,32.33
2019-03-10T02:23:43.703Z,35.52
2019-03-10T02:26:12.254Z,26.17
2019-03-10T02:28:41.522Z,33.83
2019-03-10T02:31:09.984Z,27.00
2019-03-10T02:33:38.406Z,29.92
2019-03-10T02:36:07.082Z,28.12
2019-03-10T02:38:35.522Z,30.15
2019-03-10T02:41:04.042Z,27.32
2019-03-10T02:43:33.134Z,23.95
2019-03-10T02:46:01.578Z,22.50
2019-03-10T02:48:30.018Z,20.43
2019-03-10T02:50:58.789Z,23.32
2019-03-10T02:53:27.235Z,22.90
2019-03-10T02:55:55.760Z,28.83
2019-03-10T02:58:24.508Z,27.73
2019-03-10T03:00:52.953Z,19.60
2019-03-10T03:03:21.417Z,34.43
2019-03-10T03:05:50.326Z,29.50
2019-03-10T03:08:18.860Z,24.72
2019-03-10T03:10:47.321Z,31.68
2019-03-10T03:13:16.253Z,21.05
2019-03-10T03:15:44.724Z,25.35
2019-03-10T03:18:13.158Z,24.47
2019-03-10T03:20:42.299Z,29.55
2019-03-10T03:23:10.728Z,24.60
2019-03-10T03:25:39.330Z,27.32
2019-03-10T03:28:08.670Z,34.85
2019-03-10T03:30:37.126Z,32.75
2019-03-10T03:33:05.546Z,26.17
2019-03-10T03:35:51.944Z,28.40
2019-03-10T03:38:41.139Z,40.80
2019-03-10T03:41:16.139Z,23.10
2019-03-10T03:43:44.906Z,29.75
2019-03-10T03:46:13.448Z,19.07
2019-03-10T03:48:42.309Z,30.00
2019-03-10T03:51:11.191Z,34.20
2019-03-10T03:53:39.635Z,38.30
2019-03-10T03:56:08.464Z,28.20
2019-03-10T03:58:36.919Z,26.52
2019-03-10T04:01:11.160Z,27.70
2019-03-10T04:03:59.973Z,29.80
2019-03-10T04:06:28.814Z,21.57
2019-03-10T04:08:57.253Z,26.85
2019-03-10T04:11:25.653Z,28.77
2019-03-10T04:13:54.275Z,23.32
2019-03-10T04:16:22.694Z,23.05
2019-03-10T04:18:51.349Z,22.42
2019-03-10T04:21:19.963Z,31.15
2019-03-10T04:23:48.466Z,20.88
2019-03-10T04:26:16.916Z,25.85
2019-03-10T04:28:45.478Z,24.52
2019-03-10T04:31:14.086Z,19.30
2019-03-10T04:33:42.494Z,30.88
2019-03-10T04:36:11.124Z,24.40
2019-03-10T04:38:40.674Z,20.65
2019-03-10T04:41:09.178Z,27.00
2019-03-10T04:43:37.833Z,18.60
2019-03-10T04:46:06.258Z,24.45
2019-03-10T04:48:34.678Z,17.55
2019-03-10T04:51:03.285Z,15.38
2019-03-10T04:53:31.772Z,15.15
2019-03-10T04:56:01.857Z,20.55
2019-03-10T04:58:31.380Z,16.82
2019-03-10T05:01:00.285Z,18.67
2019-03-10T05:03:28.830Z,15.68
2019-03-10T05:05:57.607Z,15.65
2019-03-10T05:08:26.042Z,24.07
2019-03-10T05:10:54.497Z,21.40
2019-03-10T05:13:23.174Z,28.90
2019-03-10T05:15:51.605Z,19.05
2019-03-10T05:18:20.006Z,19.05
2019-03-10T05:20:50.896Z,25.65
2019-03-10T05:23:33.581Z,20.12
2019-03-10T05:26:02.168Z,14.45
2019-03-10T05:28:32.895Z,23.50
2019-03-10T05:31:01.415Z,14.18
2019-03-10T05:33:30.186Z,17.35
2019-03-10T05:35:59.059Z,20.88
2019-03-10T05:38:29.140Z,17.48
2019-03-10T05:40:57.543Z,13.03
2019-03-10T05:43:27.934Z,17.62
2019-03-10T05:45:56.414Z,16.80
2019-03-10T05:48:24.847Z,22.55
2019-03-10T05:50:54.265Z,16.37
2019-03-10T05:53:22.695Z,20.40
2019-03-10T05:55:51.128Z,14.70
2019-03-10T05:58:19.768Z,15.13
2019-03-10T06:00:48.204Z,14.90
2019-03-10T06:03:16.637Z,20.82
2019-03-10T06:05:45.167Z,16.23
2019-03-10T06:08:13.755Z,15.88
2019-03-10T06:10:42.227Z,15.75
2019-03-10T06:13:10.907Z,19.15
2019-03-10T06:15:39.370Z,11.48
2019-03-10T06:18:13.486Z,13.28
2019-03-10T06:20:38.390Z,11.78
2019-03-10T06:23:06.978Z,19.75
2019-03-10T06:25:35.417Z,14.58
2019-03-10T06:28:04.334Z,13.93
2019-03-10T06:30:32.860Z,16.15
2019-03-10T06:33:01.307Z,10.70
2019-03-10T06:35:30.187Z,14.38
2019-03-10T06:37:58.804Z,9.60
2019-03-10T06:40:32.290Z,14.95
2019-03-10T06:42:57.927Z,11.05
2019-03-10T06:45:26.387Z,8.55
2019-03-10T06:47:54.911Z,11.05
2019-03-10T06:50:23.479Z,11.93
2019-03-10T06:52:53.355Z,11.65
2019-03-10T06:55:21.981Z,11.50
2019-03-10T06:57:50.928Z,15.48
2019-03-10T07:00:19.338Z,9.08
2019-03-10T07:02:47.807Z,6.50
2019-03-10T07:05:16.698Z,5.35
2019-03-10T07:07:45.208Z,9.45
2019-03-10T07:10:17.736Z,11.15
2019-03-10T07:12:46.165Z,9.45
2019-03-10T07:15:15.079Z,5.70
2019-03-10T07:17:43.822Z,11.18
2019-03-10T07:20:17.987Z,8.60
2019-03-10T07:22:46.601Z,7.87
2019-03-10T07:25:15.171Z,7.80
2019-03-10T07:27:51.964Z,8.03
2019-03-10T07:30:37.306Z,9.18
2019-03-10T07:33:10.641Z,7.87
2019-03-10T07:35:56.857Z,13.13
2019-03-10T07:38:27.190Z,7.35
2019-03-10T07:41:15.255Z,12.80
2019-03-10T07:43:45.761Z,11.15
2019-03-10T07:46:33.799Z,11.40
2019-03-10T07:49:05.331Z,7.97
2019-03-10T07:51:47.783Z,11.53
2019-03-10T07:54:23.709Z,10.15
2019-03-10T07:56:54.268Z,15.48
2019-03-10T07:59:24.314Z,6.53
2019-03-10T08:02:06.882Z,9.03
2019-03-10T08:04:53.273Z,7.42
2019-03-10T08:10:01.537Z,8.70
2019-03-10T08:12:40.446Z,11.40
2019-03-10T08:15:19.442Z,6.22
2019-03-10T08:17:49.557Z,12.18
2019-03-10T08:20:19.628Z,9.33
2019-03-10T08:22:53.067Z,6.45
2019-03-10T08:25:29.144Z,9.30
2019-03-10T08:28:02.171Z,7.85
2019-03-10T08:30:48.888Z,7.62
2019-03-10T08:33:19.110Z,10.82
2019-03-10T08:36:04.270Z,8.13
2019-03-10T08:38:34.473Z,15.75
2019-03-10T08:41:10.457Z,10.20
2019-03-10T08:46:47.666Z,10.13
2019-03-10T08:49:44.446Z,9.98
2019-03-10T08:52:11.502Z,11.57
2019-03-10T08:54:41.561Z,15.43
2019-03-10T08:57:14.299Z,11.60
2019-03-10T08:59:44.375Z,10.00
2019-03-10T09:02:14.607Z,14.95
2019-03-10T09:04:50.519Z,10.40
2019-03-10T09:07:29.739Z,10.08
2019-03-10T09:10:12.089Z,7.72
2019-03-10T09:12:47.936Z,7.75
2019-03-10T09:15:30.193Z,7.37
2019-03-10T09:18:18.555Z,7.53
2019-03-10T09:20:54.756Z,6.70
2019-03-10T09:23:41.342Z,6.85
2019-03-10T09:26:14.029Z,8.38
2019-03-10T09:28:47.006Z,5.78
2019-03-10T09:31:33.584Z,5.70
2019-03-10T09:34:22.977Z,10.08
2019-03-10T09:36:59.360Z,7.22
2019-03-10T09:39:45.608Z,5.45
2019-03-10T09:42:16.079Z,8.73
2019-03-10T09:44:52.259Z,8.60
2019-03-10T09:47:25.380Z,8.93
2019-03-10T09:49:58.449Z,5.50
2019-03-10T09:52:28.847Z,7.85
2019-03-10T09:55:15.215Z,4.35
2019-03-10T09:57:57.349Z,3.15
2019-03-10T10:05:50.331Z,3.00
2019-03-10T10:08:37.412Z,3.45
2019-03-10T10:11:07.543Z,4.78
2019-03-10T10:13:43.674Z,6.78
2019-03-10T10:16:19.497Z,4.08
2019-03-10T10:19:01.579Z,4.60
2019-03-10T10:24:07.455Z,14.80
2019-03-10T10:26:52.581Z,12.23
2019-03-10T10:29:22.835Z,7.67
2019-03-10T10:32:11.332Z,6.83
2019-03-10T10:34:41.641Z,6.62
2019-03-10T10:37:23.890Z,9.00
2019-03-10T10:40:09.175Z,6.42
2019-03-10T10:42:55.984Z,8.55
2019-03-10T10:45:38.237Z,5.60
2019-03-10T10:48:24.757Z,6.50
2019-03-10T10:51:13.092Z,2.62
2019-03-10T10:53:45.906Z,10.60
2019-03-10T10:56:25.093Z,15.65
2019-03-10T10:58:57.908Z,10.95
2019-03-10T11:01:43.355Z,10.30
2019-03-10T11:04:22.414Z,7.08
2019-03-10T11:07:05.007Z,9.40
2019-03-10T11:09:51.571Z,6.83
2019-03-10T11:12:27.835Z,10.63
2019-03-10T11:15:14.402Z,8.78
2019-03-10T11:17:45.714Z,12.35
2019-03-10T11:20:19.098Z,9.80
2019-03-10T11:22:52.835Z,6.55
2019-03-10T11:25:24.501Z,15.65
2019-03-10T11:27:54.752Z,9.65
2019-03-10T11:30:30.755Z,5.67
2019-03-10T11:33:01.029Z,8.10
2019-03-10T11:35:49.523Z,10.95
2019-03-10T11:38:19.925Z,15.58
2019-03-10T11:40:50.103Z,10.23
2019-03-10T11:43:29.073Z,15.38
2019-03-10T11:46:13.913Z,8.50
2019-03-10T11:48:53.296Z,8.88
2019-03-10T11:51:24.301Z,5.17
2019-03-10T11:53:54.505Z,7.07
2019-03-10T11:56:27.850Z,12.58
2019-03-10T11:59:09.626Z,11.25
2019-03-10T12:01:40.029Z,10.00
2019-03-10T12:04:25.106Z,9.23
2019-03-10T12:07:02.177Z,9.33
2019-03-10T12:09:30.938Z,10.80
2019-03-10T12:11:59.433Z,12.10
2019-03-10T12:14:28.234Z,14.28
2019-03-10T12:16:56.699Z,7.70
2019-03-10T12:19:25.213Z,10.48
2019-03-10T12:21:56.108Z,12.60
2019-03-10T12:24:25.174Z,9.53
2019-03-10T12:26:54.260Z,16.77
2019-03-10T12:29:23.065Z,14.00
2019-03-10T12:31:51.569Z,14.63
2019-03-10T12:34:20.008Z,10.90
2019-03-10T12:36:48.851Z,11.38
2019-03-10T12:39:17.399Z,14.87
2019-03-10T12:41:45.947Z,10.50
2019-03-10T12:44:14.484Z,15.55
2019-03-10T12:46:42.991Z,17.52
2019-03-10T12:49:11.514Z,20.60
2019-03-10T12:51:40.702Z,15.38
2019-03-10T12:54:09.132Z,14.18
2019-03-10T12:56:37.561Z,16.42
2019-03-10T12:59:06.087Z,15.72
2019-03-10T13:01:34.609Z,18.70
2019-03-10T13:04:03.066Z,24.43
2019-03-10T13:06:31.631Z,18.12
2019-03-10T13:09:00.101Z,16.87
2019-03-10T13:11:28.558Z,19.02
2019-03-10T13:13:57.161Z,11.75
2019-03-10T13:16:25.614Z,9.08
2019-03-10T13:18:54.075Z,7.80
2019-03-10T13:21:22.541Z,8.53
2019-03-10T13:23:51.306Z,15.68
2019-03-10T13:26:19.811Z,14.33
2019-03-10T13:28:48.250Z,10.32
2019-03-10T13:31:16.942Z,17.55
2019-03-10T13:33:45.375Z,27.37
2019-03-10T13:36:13.797Z,8.05
2019-03-10T13:38:42.381Z,4.87
2019-03-10T13:41:10.818Z,7.95
2019-03-10T13:43:39.321Z,2.65
2019-03-10T13:46:07.921Z,3.00
2019-03-10T13:48:36.388Z,7.78
2019-03-10T13:51:04.826Z,3.92
2019-03-10T13:53:33.592Z,9.73
2019-03-10T13:56:02.502Z,3.90
2019-03-10T13:58:30.926Z,5.47
2019-03-10T14:01:00.334Z,4.03
2019-03-10T14:03:28.974Z,5.55
2019-03-10T14:05:57.467Z,1.75
2019-03-10T14:08:26.194Z,5.50
2019-03-10T14:10:54.607Z,5.17
2019-03-10T14:13:23.105Z,4.17
2019-03-10T14:15:51.798Z,10.60
2019-03-10T14:18:20.221Z,6.80
2019-03-10T14:20:48.785Z,5.83
2019-03-10T14:23:17.606Z,3.12
2019-03-10T14:25:46.171Z,3.17
2019-03-10T14:28:14.866Z,7.12
2019-03-10T14:30:43.725Z,3.95
2019-03-10T14:33:12.273Z,8.15
2019-03-10T14:35:40.690Z,17.32
2019-03-10T14:38:09.368Z,45.63
2019-03-10T14:40:37.803Z,3.83
2019-03-10T14:43:06.392Z,4.05
2019-03-10T14:45:35.569Z,5.15
2019-03-10T14:48:04.069Z,4.72
2019-03-10T14:50:32.486Z,3.37
2019-03-10T14:53:01.217Z,1.42
2019-03-10T14:55:29.715Z,3.27
2019-03-10T14:57:58.254Z,15.32
2019-03-10T15:00:29.090Z,13.72
2019-03-10T15:02:57.737Z,5.30
2019-03-10T15:05:26.365Z,1.65
2019-03-10T15:07:55.036Z,5.08
2019-03-10T15:10:23.612Z,2.77
2019-03-10T15:12:53.786Z,5.47
2019-03-10T15:15:23.343Z,3.52
2019-03-10T15:17:51.896Z,1.35
2019-03-10T15:20:21.553Z,1.65
2019-03-10T15:22:50.799Z,3.17
2019-03-10T15:25:20.429Z,2.27
2019-03-10T15:27:48.832Z,2.33
2019-03-10T15:30:19.342Z,4.33
2019-03-10T15:32:47.948Z,8.98
2019-03-10T15:35:16.550Z,4.53
2019-03-10T15:37:45.015Z,3.72
2019-03-10T15:40:18.473Z,5.58
2019-03-10T15:42:47.040Z,6.55
2019-03-10T15:45:19.232Z,2.50
2019-03-10T15:47:48.019Z,3.17
2019-03-10T15:50:22.752Z,1.37
2019-03-10T15:52:51.325Z,6.50
2019-03-10T15:55:19.903Z,3.05
2019-03-10T15:57:50.433Z,2.02
2019-03-10T16:00:28.288Z,5.03
2019-03-10T16:02:57.309Z,2.67
2019-03-10T16:05:25.997Z,2.47
2019-03-10T16:07:54.435Z,6.22
2019-03-10T16:10:23.497Z,0.82
2019-03-10T16:12:54.342Z,1.92
2019-03-10T16:15:25.645Z,15.83
2019-03-10T16:17:54.161Z,4.95
2019-03-10T16:20:22.782Z,8.48
2019-03-10T16:22:51.271Z,1.72
2019-03-10T16:25:19.860Z,1.30
2019-03-10T16:27:49.905Z,1.52
2019-03-10T16:30:26.278Z,1.80
2019-03-10T16:32:54.869Z,1.22
2019-03-10T16:35:23.455Z,1.02
2019-03-10T16:37:51.940Z,1.65
2019-03-10T16:40:23.207Z,0.35
2019-03-10T16:42:51.689Z,0.50
2019-03-10T16:45:22.460Z,0.45
2019-03-10T16:47:50.862Z,1.10
2019-03-10T16:50:20.425Z,0.68
2019-03-10T16:52:48.868Z,0.75
2019-03-10T16:55:17.275Z,6.97
2019-03-10T16:57:47.179Z,2.60
2019-03-10T17:00:17.623Z,1.22
2019-03-10T17:02:46.098Z,1.45
2019-03-10T17:05:22.437Z,2.02
2019-03-10T17:07:51.135Z,2.12
2019-03-10T17:10:22.070Z,4.08
2019-03-10T17:12:50.621Z,7.42
2019-03-10T17:15:20.522Z,1.57
2019-03-10T17:17:49.808Z,1.77
2019-03-10T17:20:19.459Z,1.07
2019-03-10T17:22:48.254Z,4.62
2019-03-10T17:25:17.356Z,4.00
2019-03-10T17:27:46.253Z,1.00
2019-03-10T17:30:23.350Z,2.08
2019-03-10T17:32:51.931Z,1.05
2019-03-10T17:35:21.733Z,1.52
2019-03-10T17:37:50.421Z,0.95
2019-03-10T17:40:23.238Z,1.35
2019-03-10T17:42:53.075Z,3.02
2019-03-10T17:45:25.432Z,1.07
2019-03-10T17:47:53.871Z,4.58
2019-03-10T17:50:22.664Z,2.80
2019-03-10T17:52:51.260Z,1.20
2019-03-10T17:55:23.578Z,1.60
2019-03-10T17:57:52.055Z,3.75
2019-03-10T18:00:25.837Z,1.90
2019-03-10T18:02:54.453Z,4.35
2019-03-10T18:05:23.391Z,4.40
2019-03-10T18:07:51.917Z,3.52
2019-03-10T18:10:20.514Z,3.75
2019-03-10T18:12:49.035Z,4.70
2019-03-10T18:15:18.455Z,2.75
2019-03-10T18:17:47.238Z,2.55
2019-03-10T18:20:17.401Z,4.55
2019-03-10T18:22:46.625Z,9.23
2019-03-10T18:25:15.620Z,2.37
2019-03-10T18:27:44.326Z,1.87
2019-03-10T18:30:18.349Z,2.00
2019-03-10T18:32:47.029Z,7.75
2019-03-10T18:35:16.484Z,8.73
2019-03-10T18:37:45.110Z,1.87
2019-03-10T18:40:27.244Z,3.05
2019-03-10T18:45:23.563Z,2.37
2019-03-10T18:47:52.162Z,2.05
2019-03-10T18:50:23.070Z,3.98
2019-03-10T18:52:51.718Z,3.27
2019-03-10T18:55:20.382Z,1.17
2019-03-10T18:57:48.920Z,1.00
2019-03-10T19:00:31.369Z,2.02
2019-03-10T19:02:59.996Z,2.15
2019-03-10T19:05:28.649Z,2.77
2019-03-10T19:07:57.256Z,5.72
2019-03-10T19:10:25.847Z,0.90
2019-03-10T19:12:54.443Z,6.03
2019-03-10T19:15:24.138Z,2.27
2019-03-10T19:17:52.635Z,1.87
2019-03-10T19:20:21.189Z,4.10
2019-03-10T19:22:49.789Z,3.75
2019-03-10T19:25:18.286Z,2.95
2019-03-10T19:27:47.464Z,1.47
2019-03-10T19:30:20.711Z,3.40
2019-03-10T19:32:49.460Z,1.35
2019-03-10T19:35:18.058Z,7.33
2019-03-10T19:37:46.587Z,2.65
2019-03-10T19:40:20.447Z,1.15
2019-03-10T19:42:48.966Z,4.58
2019-03-10T19:45:21.161Z,2.62
2019-03-10T19:47:49.754Z,2.80
2019-03-10T19:50:30.620Z,2.55
2019-03-10T19:52:59.190Z,1.87
2019-03-10T19:55:28.419Z,2.85
2019-03-10T19:57:56.893Z,5.22
2019-03-10T20:00:25.398Z,1.42
2019-03-10T20:02:54.631Z,1.50
2019-03-10T20:05:23.251Z,3.15
2019-03-10T20:07:52.233Z,5.55
2019-03-10T20:10:24.150Z,0.75
2019-03-10T20:15:25.355Z,1.85
2019-03-10T20:17:53.884Z,5.90
2019-03-10T20:20:26.950Z,3.05
2019-03-10T20:22:55.669Z,2.37
2019-03-10T20:25:24.275Z,2.33
2019-03-10T20:27:52.855Z,2.72
2019-03-10T20:30:25.177Z,1.60
2019-03-10T20:32:53.641Z,5.80
2019-03-10T20:35:22.182Z,4.53
2019-03-10T20:37:50.706Z,1.22
2019-03-10T20:40:20.559Z,1.00
2019-03-10T20:42:49.021Z,2.65
2019-03-10T20:45:17.602Z,16.95
2019-03-10T20:47:46.231Z,3.37
2019-03-10T20:50:18.774Z,6.25
2019-03-10T20:52:47.377Z,3.75
2019-03-10T20:55:16.187Z,1.67
2019-03-10T20:57:45.092Z,8.55
2019-03-10T21:00:18.847Z,4.62
2019-03-10T21:02:48.011Z,7.00
2019-03-10T21:05:16.632Z,5.40
2019-03-10T21:07:45.364Z,3.42
2019-03-10T21:10:17.249Z,3.65
2019-03-10T21:12:45.898Z,9.08
2019-03-10T21:15:21.567Z,3.95
2019-03-10T21:17:50.095Z,1.80
2019-03-10T21:20:25.372Z,3.37
2019-03-10T21:22:55.478Z,2.70
2019-03-10T21:25:26.402Z,4.40
2019-03-10T21:27:55.001Z,4.83
2019-03-10T21:30:34.091Z,4.08
2019-03-10T21:33:02.649Z,5.75
2019-03-10T21:35:33.323Z,3.92
2019-03-10T21:38:01.482Z,14.55
2019-03-10T21:40:34.083Z,7.35
2019-03-10T21:43:02.823Z,5.42
2019-03-10T21:45:31.293Z,4.45
2019-03-10T21:47:59.797Z,3.92
2019-03-10T21:50:28.421Z,4.97
2019-03-10T21:52:56.908Z,6.90
2019-03-10T21:55:25.973Z,4.42
2019-03-10T21:57:54.477Z,7.40
2019-03-10T22:00:22.965Z,2.70
2019-03-10T22:02:51.484Z,3.90
2019-03-10T22:05:19.966Z,3.50
2019-03-10T22:07:48.404Z,6.80
2019-03-10T22:10:26.997Z,4.62
2019-03-10T22:12:50.919Z,7.97
2019-03-10T22:15:20.593Z,6.20
2019-03-10T22:17:49.126Z,4.22
2019-03-10T22:20:18.217Z,6.05
2019-03-10T22:22:49.887Z,9.93
2019-03-10T22:25:17.491Z,4.87
2019-03-10T22:27:46.460Z,7.67
2019-03-10T22:30:23.821Z,6.50
2019-03-10T22:32:52.347Z,5.17
2019-03-10T22:35:20.787Z,3.92
2019-03-10T22:37:49.180Z,3.37
2019-03-10T22:40:18.245Z,5.25
2019-03-10T22:42:46.801Z,7.47
2019-03-10T22:45:17.454Z,6.97
2019-03-10T22:47:45.891Z,8.30
2019-03-10T22:50:15.094Z,10.08
2019-03-10T22:52:44.142Z,10.38
2019-03-10T22:55:16.215Z,11.57
2019-03-10T22:57:44.704Z,8.50
2019-03-10T23:00:21.547Z,9.75
2019-03-10T23:02:50.110Z,6.45
2019-03-10T23:05:18.559Z,9.43
2019-03-10T23:07:47.182Z,4.60
2019-03-10T23:10:16.263Z,5.75
2019-03-10T23:12:45.083Z,5.55
2019-03-10T23:15:14.356Z,4.05
2019-03-10T23:17:43.017Z,6.33
2019-03-10T23:20:16.115Z,3.87
2019-03-10T23:22:44.663Z,4.08
2019-03-10T23:25:13.444Z,5.70
2019-03-10T23:27:42.274Z,4.33
2019-03-10T23:30:13.523Z,7.53
2019-03-10T23:32:42.114Z,4.92
2019-03-10T23:35:10.663Z,7.15
2019-03-10T23:37:39.543Z,3.10
2019-03-10T23:40:11.101Z,4.60
2019-03-10T23:42:39.518Z,8.23
2019-03-10T23:45:14.446Z,3.35
2019-03-10T23:47:42.863Z,9.40
2019-03-10T23:50:13.501Z,7.35
2019-03-10T23:52:42.145Z,10.38
2019-03-10T23:55:13.550Z,9.18
2019-03-10T23:57:44.226Z,8.30
